Flight Track Log - Related Links

Times and Time Zones

All times are in EDT time to prevent confusion due to time zone crossing. See the EJA922 flight status page for this flight to view local times or setup timezone preferences in your user account.

Time Position Orientation Groundspeed Altitude Reporting Facility
EDT Latitude Longitude Course Direction KTS MPH feet Rate Location/Type
Mon 05:54:00 PM 42.4327 -71.4189 249° West  Level FlightAware
Mon 05:54:50 PM 42.3961 -71.4503 249° West 259 298 7,100  Level Boston Center
Mon 05:55:51 PM 42.3822 -71.5464 259° West 260 299 11,300 3,290 Climbing Boston Center
Mon 05:56:54 PM 42.3392 -71.6589 243° Southwest 320 368 13,900 1,306 Climbing Boston Center
Mon 05:57:55 PM 42.2917 -71.7817 242° Southwest 367 422 14,000 50 Climbing Boston Center
Mon 05:58:55 PM 42.2431 -71.9069 242° Southwest 378 435 14,000  Level Boston Center
Mon 05:59:59 PM 42.1942 -72.0328 242° Southwest 373 429 14,000  Level Boston Center
Mon 06:01:00 PM 42.1422 -72.1703 243° Southwest 385 443 14,000  Level Boston Center
Mon 06:02:00 PM 42.0936 -72.2958 242° Southwest 380 437 14,000 50 Level Boston Center
Mon 06:03:01 PM 42.0450 -72.4214 242° Southwest 380 437 14,100 48 Climbing Boston Center
Mon 06:04:04 PM 41.9972 -72.5456 243° Southwest 374 430 14,100  Level Boston Center
Mon 06:05:05 PM 41.9503 -72.6711 243° Southwest 370 426 14,100  Level Boston Center
Mon 06:06:06 PM 41.9017 -72.7839 240° Southwest 326 375 14,100  Level Boston Center
Mon 06:07:06 PM 41.8622 -72.8789 241° Southwest 297 342 14,100  Level Boston Center
Mon 06:08:07 PM 41.8253 -72.9683 241° Southwest 278 320 14,100  Level Boston Center
Mon 06:09:08 PM 41.7867 -73.0617 241° Southwest 293 337 14,100 -48 Level Boston Center
Mon 06:10:12 PM 41.7381 -73.1775 241° Southwest 338 389 14,000 -48 Descending Boston Center
Mon 06:11:12 PM 41.6883 -73.2944 240° Southwest 364 419 14,000 -99 Level Boston Center
Mon 06:12:13 PM 41.6336 -73.4217 240° Southwest 379 436 13,800 -1,161 Descending Boston Center
Mon 06:13:16 PM 41.5842 -73.5353 240° Southwest 347 399 11,600 -1,902 Descending Boston Center
Mon 06:14:16 PM 41.5431 -73.6303 240° Southwest 298 343 9,900 -1,537 Descending Boston Center
Mon 06:15:17 PM 41.5053 -73.7200 241° Southwest 260 299 8,500 -1,403 Descending Boston Center
Mon 06:16:20 PM 41.4700 -73.8025 240° Southwest 256 295 7,000 -1,355 Descending Boston Center
Mon 06:17:21 PM 41.4142 -73.8519 214° Southwest 252 290 5,700 -1,403 Descending Boston Center
Mon 06:18:24 PM 41.3503 -73.8058 152° Southeast 262 302 4,100 -1,258 Descending Boston Center
Mon 06:19:25 PM 41.2833 -73.7500 148° Southeast 267 307 3,100 -893 Descending New TRACON
Mon 06:20:25 PM 41.2167 -73.6833 143° Southeast 255 293 2,300 -500 Descending New TRACON
Mon 06:21:25 PM 41.1667 -73.6333 143° Southeast 269 310 2,100 -150 Descending New TRACON
Mon 06:22:25 PM 41.1000 -73.5833 151° Southeast 267 307 2,000 -50 Descending New TRACON
Mon 06:23:25 PM 41.0333 -73.5667 169° South 266 306 2,000  Level New TRACON
Mon 06:24:25 PM 40.9833 -73.6167 217° Southwest 254 292 2,000 -250 Level New TRACON
Mon 06:25:25 PM 41.0167 -73.6667 311° West 186 214 1,500 -600 Descending New TRACON
Mon 06:26:25 PM 41.0500 -73.6833 339° North 116 133 800 -700 Descending New TRACON

Login

Don't have an account? Register now (free) for customized features, flight alerts, and more!